Time;durP1;ratioP1;P1;durP2;ratioP2;P2;SDS_P1;SDS_P2;PMS_P1;PMS_P2;Temp;Humidity;BMP_temperature;BMP_pressure;BME280_temperature;BME280_humidity;BME280_pressure;Samples;Min_cycle;Max_cycle;Signal;HPM_P1;HPM_P2
2021/06/21 00:02:12;;;;;;;9.17;2.23;;;;;;;;;;5137962;27;20260;-71
2021/06/21 00:04:39;;;;;;;5.07;2.30;;;;;;;;;;5138419;27;20224;-71
2021/06/21 00:07:07;;;;;;;8.80;2.47;;;;;;;;;;5138473;27;20238;-71
2021/06/21 00:09:35;;;;;;;5.20;2.03;;;;;;;;;;5138428;27;20203;-71
2021/06/21 00:12:03;;;;;;;8.03;2.20;;;;;;;;;;5137522;27;20212;-70
2021/06/21 00:14:30;;;;;;;9.27;2.13;;;;;;;;;;5138909;27;20208;-70
2021/06/21 00:16:58;;;;;;;7.07;2.17;;;;;;;;;;5138884;27;20735;-71
2021/06/21 00:19:28;;;;;;;4.77;2.20;;;;;;;;;;5138851;27;20565;-71
2021/06/21 00:21:55;;;;;;;6.17;1.90;;;;;;;;;;5138823;27;20631;-70
2021/06/21 00:24:23;;;;;;;4.50;2.50;;;;;;;;;;5138975;27;20205;-71
2021/06/21 00:26:51;;;;;;;4.70;2.17;;;;;;;;;;5138638;28;20200;-70
2021/06/21 00:29:20;;;;;;;5.07;1.80;;;;;;;;;;5138931;28;20204;-70
2021/06/21 00:31:47;;;;;;;6.87;2.00;;;;;;;;;;5138633;28;20223;-70
2021/06/21 00:34:15;;;;;;;3.20;1.70;;;;;;;;;;5138672;28;20285;-70
2021/06/21 00:36:44;;;;;;;6.90;1.90;;;;;;;;;;5138854;28;21052;-70
2021/06/21 00:39:12;;;;;;;11.60;2.23;;;;;;;;;;5138845;28;20196;-70
2021/06/21 00:41:40;;;;;;;3.93;1.77;;;;;;;;;;5138360;28;20278;-71
2021/06/21 00:44:08;;;;;;;8.27;2.20;;;;;;;;;;5138513;28;20207;-71
2021/06/21 00:46:36;;;;;;;8.93;2.07;;;;;;;;;;5138515;28;20204;-71
2021/06/21 00:49:04;;;;;;;8.30;2.47;;;;;;;;;;5138754;28;20621;-71
2021/06/21 00:51:33;;;;;;;7.57;2.90;;;;;;;;;;5138316;28;20257;-71
2021/06/21 00:54:02;;;;;;;4.57;2.20;;;;;;;;;;5139073;28;20560;-72
2021/06/21 00:56:29;;;;;;;9.80;2.20;;;;;;;;;;5138632;28;20273;-71
2021/06/21 00:58:59;;;;;;;11.53;2.63;;;;;;;;;;5138401;28;20288;-71
2021/06/21 01:01:27;;;;;;;6.97;2.10;;;;;;;;;;5137947;28;20247;-71
2021/06/21 01:03:55;;;;;;;6.43;2.17;;;;;;;;;;5138276;28;20224;-71
2021/06/21 01:06:23;;;;;;;6.93;2.50;;;;;;;;;;5137962;28;20293;-71
2021/06/21 01:08:51;;;;;;;10.80;2.20;;;;;;;;;;5138414;27;20547;-71
2021/06/21 01:11:20;;;;;;;4.40;1.80;;;;;;;;;;5141599;27;20576;-71
2021/06/21 01:13:56;;;;;;;7.07;3.50;;;;;;;;;;5132777;27;20200;-71
2021/06/21 01:16:27;;;;;;;6.63;2.60;;;;;;;;;;5141437;27;20203;-70
2021/06/21 01:18:57;;;;;;;8.23;2.33;;;;;;;;;;5141437;27;20571;-71
2021/06/21 01:21:36;;;;;;;6.67;2.00;;;;;;;;;;5140891;27;20363;-71
2021/06/21 01:24:15;;;;;;;7.80;2.77;;;;;;;;;;5141081;27;20599;-71
2021/06/21 01:26:46;;;;;;;8.63;2.13;;;;;;;;;;5140835;27;20204;-71
2021/06/21 01:29:23;;;;;;;6.93;2.10;;;;;;;;;;5141523;27;20200;-71
2021/06/21 01:31:52;;;;;;;6.23;2.67;;;;;;;;;;5141045;27;20227;-71
2021/06/21 01:34:24;;;;;;;4.20;2.10;;;;;;;;;;5140636;27;20231;-71
2021/06/21 01:36:53;;;;;;;7.77;2.10;;;;;;;;;;5141016;27;20200;-71
2021/06/21 01:39:21;;;;;;;9.33;2.60;;;;;;;;;;5140610;27;20312;-71
2021/06/21 01:41:52;;;;;;;8.03;2.43;;;;;;;;;;5140529;27;20250;-71
2021/06/21 01:44:20;;;;;;;5.63;2.47;;;;;;;;;;5140868;27;20228;-71
2021/06/21 01:46:50;;;;;;;7.03;2.43;;;;;;;;;;5140871;27;20678;-71
2021/06/21 01:49:27;;;;;;;4.20;2.30;;;;;;;;;;5141098;27;20264;-71
2021/06/21 01:51:56;;;;;;;8.20;3.03;;;;;;;;;;5140574;27;20224;-71
2021/06/21 01:54:25;;;;;;;5.47;2.30;;;;;;;;;;5141382;27;20723;-71
2021/06/21 01:56:54;;;;;;;8.80;2.73;;;;;;;;;;5140708;27;20204;-71
2021/06/21 01:59:24;;;;;;;6.67;2.40;;;;;;;;;;5140922;27;20211;-71
2021/06/21 02:01:53;;;;;;;7.87;2.50;;;;;;;;;;5140566;27;20220;-71
2021/06/21 02:04:21;;;;;;;4.77;2.10;;;;;;;;;;5140555;27;20228;-71
2021/06/21 02:06:50;;;;;;;8.00;2.90;;;;;;;;;;5140189;27;20211;-70
2021/06/21 02:09:21;;;;;;;9.47;2.50;;;;;;;;;;5140601;27;20200;-71
2021/06/21 02:11:49;;;;;;;6.57;2.10;;;;;;;;;;5127178;27;20255;-72
2021/06/21 02:14:19;;;;;;;8.53;2.27;;;;;;;;;;5140746;27;20204;-71
2021/06/21 02:16:47;;;;;;;6.53;2.43;;;;;;;;;;5140442;27;20204;-71
2021/06/21 02:19:15;;;;;;;4.70;2.13;;;;;;;;;;5140696;27;20214;-71
2021/06/21 02:21:43;;;;;;;9.53;2.23;;;;;;;;;;5140443;27;20224;-71
2021/06/21 02:24:14;;;;;;;7.67;2.50;;;;;;;;;;5141002;27;20266;-72
2021/06/21 02:26:42;;;;;;;7.40;2.37;;;;;;;;;;5141026;27;20212;-71
2021/06/21 02:29:10;;;;;;;10.13;2.60;;;;;;;;;;5141116;27;20237;-71
2021/06/21 02:31:37;;;;;;;8.20;2.40;;;;;;;;;;5140345;27;20618;-71
2021/06/21 02:34:05;;;;;;;5.30;1.90;;;;;;;;;;5139972;27;20243;-71
2021/06/21 02:36:33;;;;;;;4.43;2.63;;;;;;;;;;5140189;27;20257;-71
2021/06/21 02:39:01;;;;;;;10.20;2.37;;;;;;;;;;5139633;27;20197;-71
2021/06/21 02:41:30;;;;;;;9.23;2.40;;;;;;;;;;5139567;27;20276;-71
2021/06/21 02:43:58;;;;;;;7.77;2.80;;;;;;;;;;5139346;27;20245;-71
2021/06/21 02:46:25;;;;;;;6.83;2.37;;;;;;;;;;5139528;27;20291;-71
2021/06/21 02:48:53;;;;;;;7.77;1.93;;;;;;;;;;5139826;27;20208;-71
2021/06/21 02:51:30;;;;;;;7.23;2.20;;;;;;;;;;5140341;27;20293;-71
2021/06/21 02:53:59;;;;;;;12.37;2.97;;;;;;;;;;5127442;27;20204;-71
2021/06/21 02:56:31;;;;;;;10.20;2.57;;;;;;;;;;5139774;27;20239;-71
2021/06/21 02:59:03;;;;;;;8.63;3.00;;;;;;;;;;5139867;27;20212;-71
2021/06/21 03:01:31;;;;;;;8.73;2.30;;;;;;;;;;5139581;27;20297;-70
2021/06/21 03:04:00;;;;;;;11.83;2.67;;;;;;;;;;5139354;27;20230;-71
2021/06/21 03:06:28;;;;;;;11.47;3.13;;;;;;;;;;5139781;27;20200;-71
2021/06/21 03:08:56;;;;;;;9.10;3.27;;;;;;;;;;5139716;27;20204;-71
2021/06/21 03:11:25;;;;;;;9.97;3.17;;;;;;;;;;5139321;27;20228;-71
2021/06/21 03:13:54;;;;;;;13.63;3.63;;;;;;;;;;5139274;27;20583;-71
2021/06/21 03:16:23;;;;;;;13.47;2.87;;;;;;;;;;5139334;27;20560;-71
2021/06/21 03:18:51;;;;;;;11.00;2.80;;;;;;;;;;5139490;27;20200;-71
2021/06/21 03:21:19;;;;;;;6.30;2.50;;;;;;;;;;5139620;27;20285;-71
2021/06/21 03:23:51;;;;;;;7.93;2.77;;;;;;;;;;5139587;27;20228;-71
2021/06/21 03:26:23;;;;;;;5.57;2.53;;;;;;;;;;5126112;27;20204;-71
2021/06/21 03:28:51;;;;;;;8.27;2.37;;;;;;;;;;5140482;27;20207;-71
2021/06/21 03:31:20;;;;;;;9.80;2.40;;;;;;;;;;5140319;27;20236;-71
2021/06/21 03:33:50;;;;;;;5.90;2.47;;;;;;;;;;5138952;27;20292;-71
2021/06/21 03:36:18;;;;;;;7.00;2.67;;;;;;;;;;5138329;27;20651;-71
2021/06/21 03:38:46;;;;;;;14.23;3.47;;;;;;;;;;5138072;27;20196;-71
2021/06/21 03:41:14;;;;;;;8.87;2.57;;;;;;;;;;5139474;27;20639;-71
2021/06/21 03:43:41;;;;;;;12.80;3.00;;;;;;;;;;5139214;27;20255;-71
2021/06/21 03:46:09;;;;;;;5.57;3.10;;;;;;;;;;5139159;27;20208;-71
2021/06/21 03:48:37;;;;;;;11.57;2.97;;;;;;;;;;5138770;27;20245;-71
2021/06/21 03:51:07;;;;;;;7.13;3.20;;;;;;;;;;5139093;27;20201;-71
2021/06/21 03:53:34;;;;;;;8.97;2.90;;;;;;;;;;5138228;27;20196;-71
2021/06/21 03:56:02;;;;;;;11.03;3.43;;;;;;;;;;5138664;27;20200;-71
2021/06/21 03:58:30;;;;;;;14.23;3.13;;;;;;;;;;5138005;27;20200;-71
2021/06/21 04:00:57;;;;;;;11.63;3.87;;;;;;;;;;5138215;27;20229;-71
2021/06/21 04:03:25;;;;;;;8.47;3.07;;;;;;;;;;5138109;27;20214;-71
2021/06/21 04:05:53;;;;;;;12.17;3.73;;;;;;;;;;5138373;27;20317;-71
2021/06/21 04:08:25;;;;;;;15.83;3.73;;;;;;;;;;5138689;27;20204;-71
2021/06/21 04:10:52;;;;;;;13.83;3.50;;;;;;;;;;5138821;27;20559;-71
2021/06/21 04:13:20;;;;;;;9.87;3.07;;;;;;;;;;5124937;27;20260;-71
2021/06/21 04:15:48;;;;;;;8.80;3.57;;;;;;;;;;5137885;27;20565;-71
2021/06/21 04:18:17;;;;;;;11.40;3.87;;;;;;;;;;5138120;27;20208;-71
2021/06/21 04:20:45;;;;;;;6.27;3.17;;;;;;;;;;5138043;27;20204;-71
2021/06/21 04:23:13;;;;;;;10.53;3.73;;;;;;;;;;5138071;27;20276;-71
2021/06/21 04:25:42;;;;;;;9.63;3.40;;;;;;;;;;5137765;27;20231;-71
2021/06/21 04:28:10;;;;;;;11.87;4.10;;;;;;;;;;5137797;27;20237;-71
2021/06/21 04:30:38;;;;;;;15.00;4.87;;;;;;;;;;5137234;28;20208;-71
2021/06/21 04:33:05;;;;;;;10.93;4.70;;;;;;;;;;5137549;28;20232;-71
2021/06/21 04:35:33;;;;;;;18.40;5.40;;;;;;;;;;5137261;28;20307;-71
2021/06/21 04:38:01;;;;;;;14.63;6.17;;;;;;;;;;5137579;28;20243;-70
2021/06/21 04:40:29;;;;;;;12.70;6.03;;;;;;;;;;5137100;28;20208;-71
2021/06/21 04:42:58;;;;;;;15.83;6.80;;;;;;;;;;5137047;28;20245;-71
2021/06/21 04:45:26;;;;;;;12.80;6.40;;;;;;;;;;5140864;27;20227;-71
2021/06/21 04:47:56;;;;;;;13.87;6.00;;;;;;;;;;5142344;27;20809;-71
2021/06/21 04:50:24;;;;;;;12.23;6.03;;;;;;;;;;5142319;27;20237;-71
2021/06/21 04:52:51;;;;;;;9.47;5.57;;;;;;;;;;5142041;27;20228;-71
2021/06/21 04:55:20;;;;;;;16.93;6.17;;;;;;;;;;5141945;27;20235;-71
2021/06/21 04:57:48;;;;;;;12.07;5.07;;;;;;;;;;5142291;27;20233;-71
2021/06/21 05:00:19;;;;;;;17.70;6.30;;;;;;;;;;5141984;27;20559;-71
2021/06/21 05:02:47;;;;;;;13.67;5.90;;;;;;;;;;5142457;27;20224;-71
2021/06/21 05:05:15;;;;;;;20.57;6.07;;;;;;;;;;5142050;27;20683;-71
2021/06/21 05:07:46;;;;;;;14.90;5.67;;;;;;;;;;5142210;27;20662;-71
2021/06/21 05:10:15;;;;;;;12.43;6.27;;;;;;;;;;5141767;27;20219;-71
2021/06/21 05:12:43;;;;;;;15.53;6.57;;;;;;;;;;5133229;27;20224;-71
2021/06/21 05:15:12;;;;;;;12.00;6.40;;;;;;;;;;5141346;27;20207;-71
2021/06/21 05:17:41;;;;;;;9.80;6.80;;;;;;;;;;5141615;27;20211;-71
2021/06/21 05:20:09;;;;;;;10.07;6.80;;;;;;;;;;5141636;27;20249;-71
2021/06/21 05:22:37;;;;;;;11.23;7.07;;;;;;;;;;5141510;27;20254;-71
2021/06/21 05:25:05;;;;;;;14.97;7.17;;;;;;;;;;5141200;27;20224;-72
2021/06/21 05:27:33;;;;;;;10.30;6.53;;;;;;;;;;5141659;27;20200;-71
2021/06/21 05:30:01;;;;;;;10.87;6.77;;;;;;;;;;5141078;27;20204;-71
2021/06/21 05:32:29;;;;;;;14.57;7.23;;;;;;;;;;5140644;27;20228;-71
2021/06/21 05:34:58;;;;;;;15.67;6.73;;;;;;;;;;5140888;27;20235;-71
2021/06/21 05:37:26;;;;;;;14.90;7.07;;;;;;;;;;5140825;27;20555;-71
2021/06/21 05:39:53;;;;;;;13.30;6.33;;;;;;;;;;5141304;27;20204;-72
2021/06/21 05:42:21;;;;;;;13.03;7.67;;;;;;;;;;5141158;27;20276;-71
2021/06/21 05:44:50;;;;;;;13.93;7.20;;;;;;;;;;5140941;27;20281;-71
2021/06/21 05:47:17;;;;;;;10.10;6.53;;;;;;;;;;5140502;27;20268;-71
2021/06/21 05:49:45;;;;;;;17.10;7.60;;;;;;;;;;5141284;27;20659;-71
2021/06/21 05:52:14;;;;;;;13.77;8.10;;;;;;;;;;5141394;27;20713;-71
2021/06/21 05:54:42;;;;;;;14.57;7.87;;;;;;;;;;5141452;27;20640;-71
2021/06/21 05:57:10;;;;;;;15.50;7.77;;;;;;;;;;5140917;27;20207;-71
2021/06/21 05:59:37;;;;;;;15.33;7.30;;;;;;;;;;5141581;27;20647;-71
2021/06/21 06:02:05;;;;;;;20.40;8.47;;;;;;;;;;5141229;27;20261;-71
2021/06/21 06:04:33;;;;;;;23.17;9.90;;;;;;;;;;5141300;27;20211;-71
2021/06/21 06:07:01;;;;;;;16.23;9.93;;;;;;;;;;5141767;27;20222;-71
2021/06/21 06:09:30;;;;;;;23.10;9.80;;;;;;;;;;5140892;27;20257;-71
2021/06/21 06:11:57;;;;;;;18.67;9.20;;;;;;;;;;5136699;27;20266;-71
2021/06/21 06:14:25;;;;;;;18.03;9.83;;;;;;;;;;5136511;27;20322;-71
2021/06/21 06:16:54;;;;;;;20.30;9.97;;;;;;;;;;5140975;27;20564;-71
2021/06/21 06:19:22;;;;;;;17.73;9.17;;;;;;;;;;5141075;27;20201;-71
2021/06/21 06:21:50;;;;;;;15.10;8.33;;;;;;;;;;5140696;27;20285;-71
2021/06/21 06:24:17;;;;;;;17.53;7.77;;;;;;;;;;5140941;27;20269;-71
2021/06/21 06:26:48;;;;;;;12.97;8.20;;;;;;;;;;5140356;27;20224;-70
2021/06/21 06:29:15;;;;;;;12.03;8.23;;;;;;;;;;5140265;27;20536;-71
2021/06/21 06:31:46;;;;;;;14.77;8.13;;;;;;;;;;5139578;27;20273;-72
2021/06/21 06:34:14;;;;;;;15.40;7.77;;;;;;;;;;5139974;27;20787;-72
2021/06/21 06:36:42;;;;;;;15.27;8.63;;;;;;;;;;5140072;27;20230;-72
2021/06/21 06:39:10;;;;;;;16.93;7.07;;;;;;;;;;5140143;27;20212;-72
2021/06/21 06:41:38;;;;;;;11.03;6.77;;;;;;;;;;5139674;27;20243;-72
2021/06/21 06:44:07;;;;;;;12.93;6.93;;;;;;;;;;5139672;27;20678;-71
2021/06/21 06:46:34;;;;;;;12.23;6.67;;;;;;;;;;5139490;27;20276;-71
2021/06/21 06:49:02;;;;;;;10.30;6.80;;;;;;;;;;5139691;27;20212;-71
2021/06/21 06:51:35;;;;;;;14.83;6.63;;;;;;;;;;5139837;27;20220;-71
2021/06/21 06:54:05;;;;;;;13.37;6.53;;;;;;;;;;5139894;27;20200;-72
2021/06/21 06:59:19;;;;;;;16.03;6.93;;;;;;;;;;5139949;27;20261;-71
2021/06/21 07:01:47;;;;;;;14.20;6.87;;;;;;;;;;5139671;27;20220;-72
2021/06/21 07:04:15;;;;;;;14.83;7.20;;;;;;;;;;5141211;27;20562;-70
2021/06/21 07:06:43;;;;;;;19.33;5.77;;;;;;;;;;5140201;27;20278;-70
2021/06/21 07:09:11;;;;;;;13.20;6.70;;;;;;;;;;5139522;27;20258;-71
2021/06/21 07:11:39;;;;;;;17.43;6.20;;;;;;;;;;5137973;27;20226;-69
2021/06/21 07:14:07;;;;;;;12.77;5.50;;;;;;;;;;5131562;27;20225;-69
2021/06/21 07:16:37;;;;;;;14.63;5.37;;;;;;;;;;5124597;27;20247;-70
2021/06/21 07:19:04;;;;;;;7.60;4.73;;;;;;;;;;5137899;27;20203;-69
2021/06/21 07:21:33;;;;;;;11.40;3.97;;;;;;;;;;5138802;27;20562;-70
2021/06/21 07:24:01;;;;;;;8.80;4.20;;;;;;;;;;5139279;27;20214;-70
2021/06/21 07:26:28;;;;;;;10.97;4.47;;;;;;;;;;5138936;27;20229;-70
2021/06/21 07:28:56;;;;;;;9.97;4.43;;;;;;;;;;5139412;27;20208;-72
2021/06/21 07:31:24;;;;;;;15.10;4.73;;;;;;;;;;5138748;27;20288;-72
2021/06/21 07:33:53;;;;;;;10.07;4.07;;;;;;;;;;5139171;27;20233;-72
2021/06/21 07:36:21;;;;;;;11.47;4.83;;;;;;;;;;5139312;27;20207;-71
2021/06/21 07:38:52;;;;;;;10.50;4.50;;;;;;;;;;5138937;27;20205;-71
2021/06/21 07:41:19;;;;;;;10.03;4.13;;;;;;;;;;5139115;27;20245;-71
2021/06/21 07:43:49;;;;;;;17.00;4.63;;;;;;;;;;5138737;27;20224;-71
2021/06/21 07:46:17;;;;;;;11.27;3.80;;;;;;;;;;5138436;27;20221;-71
2021/06/21 07:48:44;;;;;;;8.90;3.50;;;;;;;;;;5138571;27;20203;-70
2021/06/21 07:51:14;;;;;;;13.67;3.93;;;;;;;;;;5138808;27;20210;-70
2021/06/21 07:53:43;;;;;;;8.47;3.60;;;;;;;;;;5138742;27;20264;-70
2021/06/21 07:56:13;;;;;;;8.53;3.40;;;;;;;;;;5138507;27;20210;-69
2021/06/21 07:58:41;;;;;;;7.70;2.87;;;;;;;;;;5138616;27;20236;-69
2021/06/21 08:01:11;;;;;;;7.77;3.03;;;;;;;;;;5138015;27;20209;-69
2021/06/21 08:03:39;;;;;;;9.50;3.23;;;;;;;;;;5138234;27;20217;-69
2021/06/21 08:06:10;;;;;;;12.57;3.37;;;;;;;;;;5138232;27;20272;-69
2021/06/21 08:08:40;;;;;;;10.27;3.40;;;;;;;;;;5138555;27;20233;-70
2021/06/21 08:11:07;;;;;;;9.23;3.33;;;;;;;;;;5137938;27;20202;-70
2021/06/21 08:13:35;;;;;;;5.30;2.90;;;;;;;;;;5137313;27;20202;-69
2021/06/21 08:16:03;;;;;;;8.70;2.70;;;;;;;;;;5137516;27;20759;-70
2021/06/21 08:18:31;;;;;;;8.03;3.57;;;;;;;;;;5137394;27;20206;-71
2021/06/21 08:20:59;;;;;;;13.70;3.33;;;;;;;;;;5137959;27;20202;-70
2021/06/21 08:23:28;;;;;;;11.43;3.27;;;;;;;;;;5138153;27;20568;-70
2021/06/21 08:25:57;;;;;;;12.00;3.03;;;;;;;;;;5138347;27;20225;-71
2021/06/21 08:28:25;;;;;;;5.53;2.83;;;;;;;;;;5138429;27;20237;-71
2021/06/21 08:30:53;;;;;;;6.63;2.70;;;;;;;;;;5138608;28;20211;-71
2021/06/21 08:33:20;;;;;;;8.23;2.87;;;;;;;;;;5138630;28;20263;-71
2021/06/21 08:35:51;;;;;;;8.17;3.53;;;;;;;;;;5138766;28;20211;-71
2021/06/21 08:38:19;;;;;;;9.33;2.87;;;;;;;;;;5139753;28;20266;-71
2021/06/21 08:40:47;;;;;;;6.43;3.50;;;;;;;;;;5139926;28;20211;-71
2021/06/21 08:43:16;;;;;;;7.60;3.07;;;;;;;;;;5139778;28;20717;-71
2021/06/21 08:45:45;;;;;;;11.03;3.50;;;;;;;;;;5138856;28;20196;-71
2021/06/21 08:48:13;;;;;;;7.23;3.90;;;;;;;;;;5139246;28;20267;-71
2021/06/21 08:50:41;;;;;;;10.60;3.37;;;;;;;;;;5139098;28;20271;-71
2021/06/21 08:53:09;;;;;;;8.07;3.60;;;;;;;;;;5139567;28;20624;-71
2021/06/21 08:55:37;;;;;;;9.23;3.73;;;;;;;;;;5125853;28;20218;-70
2021/06/21 08:58:05;;;;;;;9.67;3.43;;;;;;;;;;5139114;28;20234;-70
2021/06/21 09:00:35;;;;;;;7.50;3.27;;;;;;;;;;5139302;28;20200;-69
2021/06/21 09:03:03;;;;;;;9.03;3.20;;;;;;;;;;5139677;28;20298;-69
2021/06/21 09:05:32;;;;;;;9.87;3.43;;;;;;;;;;5139329;28;20208;-71
2021/06/21 09:08:01;;;;;;;12.87;3.57;;;;;;;;;;5139330;28;20229;-71
2021/06/21 09:10:30;;;;;;;9.40;3.50;;;;;;;;;;5138790;28;20206;-71
2021/06/21 09:13:02;;;;;;;8.40;3.70;;;;;;;;;;5127821;28;20757;-71
2021/06/21 09:15:31;;;;;;;9.63;3.37;;;;;;;;;;5137342;28;20246;-71
2021/06/21 09:18:01;;;;;;;9.90;3.37;;;;;;;;;;5137196;28;20196;-72
2021/06/21 09:20:29;;;;;;;7.00;3.13;;;;;;;;;;5137337;28;20231;-71
2021/06/21 09:23:01;;;;;;;7.17;3.07;;;;;;;;;;5137488;28;20250;-71
2021/06/21 09:25:29;;;;;;;8.63;3.60;;;;;;;;;;5137632;28;20206;-71
2021/06/21 09:27:58;;;;;;;10.27;3.37;;;;;;;;;;5137281;28;20221;-71
2021/06/21 09:30:26;;;;;;;12.57;3.80;;;;;;;;;;5137925;27;20201;-71
2021/06/21 09:32:54;;;;;;;6.50;3.10;;;;;;;;;;5140804;27;20309;-71
2021/06/21 09:35:39;;;;;;;11.27;3.47;;;;;;;;;;5140857;27;20304;-70
2021/06/21 09:38:12;;;;;;;9.40;3.50;;;;;;;;;;5140928;27;20201;-70
2021/06/21 09:40:42;;;;;;;6.00;3.27;;;;;;;;;;5141137;27;20204;-70
2021/06/21 09:43:20;;;;;;;11.33;3.10;;;;;;;;;;5140677;27;20621;-72
2021/06/21 09:46:07;;;;;;;6.83;3.07;;;;;;;;;;5127112;27;20210;-70
2021/06/21 09:48:36;;;;;;;10.70;3.47;;;;;;;;;;5140379;27;20224;-69
2021/06/21 09:51:28;;;;;;;8.23;3.10;;;;;;;;;;5140470;27;20204;-70
2021/06/21 09:53:57;;;;;;;5.17;3.13;;;;;;;;;;5140839;27;20212;-70
2021/06/21 09:56:38;;;;;;;7.37;3.27;;;;;;;;;;5141378;27;20257;-70
2021/06/21 09:59:22;;;;;;;13.03;3.10;;;;;;;;;;5141498;27;20202;-71
2021/06/21 10:02:04;;;;;;;10.67;3.20;;;;;;;;;;5141540;27;20255;-70
2021/06/21 10:04:32;;;;;;;13.40;3.60;;;;;;;;;;5141474;27;20212;-70
2021/06/21 10:07:01;;;;;;;6.60;3.43;;;;;;;;;;5141329;27;20229;-70
2021/06/21 10:09:30;;;;;;;9.80;3.20;;;;;;;;;;5141252;27;20228;-69
2021/06/21 10:11:58;;;;;;;17.50;4.97;;;;;;;;;;5140366;27;20217;-70
2021/06/21 10:14:27;;;;;;;8.23;3.97;;;;;;;;;;5140878;27;20209;-69
2021/06/21 10:16:55;;;;;;;10.10;3.50;;;;;;;;;;5139855;27;20204;-69
2021/06/21 10:19:23;;;;;;;14.80;3.93;;;;;;;;;;5140246;27;20220;-71
2021/06/21 10:21:54;;;;;;;14.43;4.07;;;;;;;;;;5139953;27;20226;-70
2021/06/21 10:24:30;;;;;;;12.93;5.47;;;;;;;;;;5140425;27;20213;-71
2021/06/21 10:26:59;;;;;;;11.47;3.97;;;;;;;;;;5140094;27;20229;-71
2021/06/21 10:29:26;;;;;;;10.53;3.40;;;;;;;;;;5140362;27;20574;-71
2021/06/21 10:31:54;;;;;;;11.20;4.30;;;;;;;;;;5140065;27;20589;-71
2021/06/21 10:34:22;;;;;;;13.93;3.70;;;;;;;;;;5140412;27;20231;-71
2021/06/21 10:36:52;;;;;;;14.67;4.03;;;;;;;;;;5140485;27;20210;-71
2021/06/21 10:39:20;;;;;;;13.47;3.57;;;;;;;;;;5127285;27;20772;-71
2021/06/21 10:42:03;;;;;;;15.50;3.57;;;;;;;;;;5140071;27;20224;-71
2021/06/21 10:44:39;;;;;;;13.33;3.70;;;;;;;;;;5139306;27;20203;-71
2021/06/21 10:47:23;;;;;;;17.13;3.97;;;;;;;;;;5139840;27;20237;-71
2021/06/21 10:49:55;;;;;;;15.33;3.70;;;;;;;;;;5139742;27;20212;-71
2021/06/21 10:52:42;;;;;;;16.43;4.27;;;;;;;;;;5139913;27;20223;-71
2021/06/21 10:55:30;;;;;;;6.80;3.37;;;;;;;;;;5140377;27;20208;-71
2021/06/21 10:57:59;;;;;;;18.80;4.93;;;;;;;;;;5139922;27;20251;-71
2021/06/21 11:00:32;;;;;;;10.47;3.83;;;;;;;;;;5140093;27;20202;-71
2021/06/21 11:03:01;;;;;;;16.47;4.30;;;;;;;;;;5140132;27;20224;-71
2021/06/21 11:05:33;;;;;;;16.80;4.80;;;;;;;;;;5140271;27;20560;-71
2021/06/21 11:08:14;;;;;;;19.77;4.47;;;;;;;;;;5140162;27;20266;-71
2021/06/21 11:10:42;;;;;;;18.03;3.77;;;;;;;;;;5140360;27;20214;-71
2021/06/21 11:13:28;;;;;;;21.80;4.37;;;;;;;;;;5131494;27;20579;-71
2021/06/21 11:16:14;;;;;;;17.80;4.13;;;;;;;;;;5140083;27;20241;-71
2021/06/21 11:18:46;;;;;;;13.57;3.93;;;;;;;;;;5140258;27;20211;-71
2021/06/21 11:21:14;;;;;;;7.77;3.57;;;;;;;;;;5139937;27;20663;-72
2021/06/21 11:23:42;;;;;;;15.80;4.03;;;;;;;;;;5140103;27;20236;-71
2021/06/21 11:26:10;;;;;;;8.90;4.00;;;;;;;;;;5139891;27;20573;-71
2021/06/21 11:28:39;;;;;;;13.90;3.93;;;;;;;;;;5139403;27;20231;-71
2021/06/21 11:31:23;;;;;;;16.07;4.67;;;;;;;;;;5139303;27;20215;-71
2021/06/21 11:33:53;;;;;;;13.57;4.50;;;;;;;;;;5138923;27;20275;-71
2021/06/21 11:36:37;;;;;;;15.50;5.00;;;;;;;;;;5138790;27;20230;-71
2021/06/21 11:39:17;;;;;;;16.13;4.20;;;;;;;;;;5137037;27;20205;-71
2021/06/21 11:41:52;;;;;;;13.40;4.20;;;;;;;;;;5138464;27;20230;-71
2021/06/21 11:44:34;;;;;;;16.20;4.03;;;;;;;;;;5138753;27;20199;-71
2021/06/21 11:47:02;;;;;;;15.23;3.90;;;;;;;;;;5104641;27;20265;-72
2021/06/21 11:49:31;;;;;;;16.63;3.97;;;;;;;;;;5138523;27;20225;-71
2021/06/21 11:52:00;;;;;;;18.00;5.40;;;;;;;;;;5138093;27;20229;-71
2021/06/21 11:54:29;;;;;;;18.73;3.70;;;;;;;;;;5137764;27;20229;-71
2021/06/21 11:56:58;;;;;;;13.03;3.60;;;;;;;;;;5138614;27;20226;-72
2021/06/21 11:59:34;;;;;;;10.03;3.37;;;;;;;;;;5138771;27;20651;-71
2021/06/21 12:02:03;;;;;;;7.93;3.20;;;;;;;;;;5138091;27;20229;-71
2021/06/21 12:04:33;;;;;;;10.43;3.10;;;;;;;;;;5138700;27;20202;-71
2021/06/21 12:07:01;;;;;;;9.43;2.93;;;;;;;;;;5138841;27;20199;-71
2021/06/21 12:09:28;;;;;;;11.00;3.60;;;;;;;;;;5138832;27;20226;-71
2021/06/21 12:11:56;;;;;;;13.97;3.40;;;;;;;;;;5137878;27;20247;-71
2021/06/21 12:14:25;;;;;;;7.77;2.97;;;;;;;;;;5138522;27;20203;-71
2021/06/21 12:17:02;;;;;;;10.50;3.03;;;;;;;;;;5138680;27;20216;-71
2021/06/21 12:19:30;;;;;;;9.37;2.77;;;;;;;;;;5138415;27;20273;-71
2021/06/21 12:22:01;;;;;;;8.37;2.40;;;;;;;;;;5137960;27;20263;-71
2021/06/21 12:24:30;;;;;;;5.93;2.70;;;;;;;;;;5137865;27;20209;-72
2021/06/21 12:26:58;;;;;;;10.20;2.53;;;;;;;;;;5138286;27;20212;-71
2021/06/21 12:29:27;;;;;;;8.50;2.43;;;;;;;;;;5138076;27;20253;-71
2021/06/21 12:31:56;;;;;;;5.07;2.50;;;;;;;;;;5138081;27;20229;-71
2021/06/21 12:34:54;;;;;;;8.00;2.43;;;;;;;;;;5137764;28;20294;-71
2021/06/21 12:37:29;;;;;;;4.37;2.60;;;;;;;;;;5030722;28;20201;-71
2021/06/21 12:39:58;;;;;;;4.93;3.13;;;;;;;;;;5118699;28;20206;-71
2021/06/21 12:42:28;;;;;;;8.37;2.57;;;;;;;;;;5137892;28;20696;-71
2021/06/21 12:44:56;;;;;;;8.93;3.10;;;;;;;;;;5138326;28;20210;-71
2021/06/21 12:47:25;;;;;;;8.20;3.10;;;;;;;;;;5138298;28;20254;-73
2021/06/21 12:49:54;;;;;;;6.03;2.50;;;;;;;;;;5138654;28;20224;-71
2021/06/21 12:52:23;;;;;;;12.93;2.97;;;;;;;;;;5138572;28;20253;-71
2021/06/21 12:55:07;;;;;;;6.57;2.67;;;;;;;;;;5138817;28;20215;-71
2021/06/21 12:57:48;;;;;;;5.97;2.60;;;;;;;;;;5138821;28;20233;-71
2021/06/21 13:00:17;;;;;;;11.60;2.93;;;;;;;;;;5138217;28;20207;-72
2021/06/21 13:02:45;;;;;;;5.37;2.10;;;;;;;;;;5138453;28;20227;-71
2021/06/21 13:05:15;;;;;;;8.07;2.80;;;;;;;;;;5138736;27;20672;-71
2021/06/21 13:07:46;;;;;;;5.50;2.60;;;;;;;;;;5142676;27;20714;-71
2021/06/21 13:10:25;;;;;;;9.57;2.57;;;;;;;;;;5142627;27;20283;-71
2021/06/21 13:12:54;;;;;;;5.77;2.40;;;;;;;;;;5133948;27;20310;-71
2021/06/21 13:15:22;;;;;;;4.07;1.90;;;;;;;;;;5141944;27;20254;-71
2021/06/21 13:17:50;;;;;;;7.40;3.30;;;;;;;;;;5142146;27;20204;-71
2021/06/21 13:20:19;;;;;;;4.20;1.70;;;;;;;;;;5142098;27;20233;-72
2021/06/21 13:22:48;;;;;;;9.87;2.30;;;;;;;;;;5141848;27;20313;-71
2021/06/21 13:25:18;;;;;;;8.50;2.00;;;;;;;;;;5142172;27;20242;-71
2021/06/21 13:27:51;;;;;;;3.03;1.83;;;;;;;;;;5142205;27;20203;-71
2021/06/21 13:30:22;;;;;;;3.37;1.87;;;;;;;;;;5141738;27;20261;-71
2021/06/21 13:32:51;;;;;;;6.60;1.63;;;;;;;;;;5142016;27;20275;-71
2021/06/21 13:35:19;;;;;;;3.70;1.70;;;;;;;;;;5141677;27;20302;-71
2021/06/21 13:37:52;;;;;;;2.93;2.10;;;;;;;;;;5142024;27;20260;-71
2021/06/21 13:40:21;;;;;;;3.23;1.90;;;;;;;;;;5142186;27;20267;-71
2021/06/21 13:42:52;;;;;;;3.90;1.70;;;;;;;;;;5141872;27;20220;-71
2021/06/21 13:45:21;;;;;;;5.00;1.63;;;;;;;;;;5141413;27;20212;-71
2021/06/21 13:47:54;;;;;;;4.60;1.90;;;;;;;;;;5141873;27;20660;-71
2021/06/21 13:50:26;;;;;;;6.93;1.87;;;;;;;;;;5141721;27;20257;-71
2021/06/21 13:52:54;;;;;;;3.90;2.07;;;;;;;;;;5141980;27;20363;-71
2021/06/21 13:55:22;;;;;;;3.77;1.40;;;;;;;;;;5141598;27;20231;-71
2021/06/21 13:57:51;;;;;;;4.17;1.50;;;;;;;;;;5141757;27;20207;-71
2021/06/21 14:00:30;;;;;;;5.23;1.67;;;;;;;;;;5127800;27;20206;-71
2021/06/21 14:02:59;;;;;;;5.77;2.00;;;;;;;;;;5141604;27;20230;-71
2021/06/21 14:05:27;;;;;;;2.93;1.60;;;;;;;;;;5141390;27;20249;-71
2021/06/21 14:07:55;;;;;;;3.13;1.90;;;;;;;;;;5141575;27;20209;-71
2021/06/21 14:10:23;;;;;;;6.63;2.23;;;;;;;;;;5141320;27;20227;-71
2021/06/21 14:12:53;;;;;;;1.43;1.07;;;;;;;;;;5140725;27;20253;-72
2021/06/21 14:15:21;;;;;;;2.63;1.37;;;;;;;;;;5141239;27;20208;-71
2021/06/21 14:17:49;;;;;;;3.20;1.47;;;;;;;;;;5140703;27;20206;-71
2021/06/21 14:20:17;;;;;;;1.83;1.30;;;;;;;;;;5140942;27;20656;-71
2021/06/21 14:22:45;;;;;;;5.53;1.67;;;;;;;;;;5140830;27;20228;-71
2021/06/21 14:25:13;;;;;;;4.97;1.40;;;;;;;;;;5140887;27;20228;-71
2021/06/21 14:27:41;;;;;;;4.17;1.50;;;;;;;;;;5140297;27;20239;-71
2021/06/21 14:30:11;;;;;;;2.50;1.40;;;;;;;;;;5139793;27;20228;-71
2021/06/21 14:32:39;;;;;;;6.17;2.40;;;;;;;;;;5139981;27;20224;-71
2021/06/21 14:35:08;;;;;;;8.67;2.60;;;;;;;;;;5139573;27;20743;-71
2021/06/21 14:37:36;;;;;;;2.87;2.37;;;;;;;;;;5139335;27;20210;-71
2021/06/21 14:40:07;;;;;;;7.03;2.07;;;;;;;;;;5139331;27;20197;-71
2021/06/21 14:42:35;;;;;;;10.57;2.20;;;;;;;;;;5125517;27;20276;-71
2021/06/21 14:45:03;;;;;;;7.03;2.40;;;;;;;;;;5138907;27;20235;-70
2021/06/21 14:47:32;;;;;;;3.23;1.83;;;;;;;;;;5139118;27;20662;-71
2021/06/21 14:52:43;;;;;;;7.00;2.10;;;;;;;;;;5137034;27;20231;-71
2021/06/21 14:55:12;;;;;;;4.20;2.20;;;;;;;;;;5138847;27;20278;-71
2021/06/21 14:57:41;;;;;;;2.80;1.50;;;;;;;;;;5138809;27;20210;-71
2021/06/21 15:00:10;;;;;;;4.17;1.50;;;;;;;;;;5139111;27;20259;-71